createdAt,value
2018-02-23T00:01:46.664Z,63.60
2018-02-23T00:04:14.212Z,63.10
2018-02-23T00:06:41.735Z,62.60
2018-02-23T00:09:09.355Z,63.40
2018-02-23T00:11:36.874Z,63.30
2018-02-23T00:14:04.415Z,64.00
2018-02-23T00:16:31.946Z,64.90
2018-02-23T00:19:00.264Z,67.80
2018-02-23T00:21:28.644Z,67.80
2018-02-23T00:23:56.297Z,68.30
2018-02-23T00:26:23.860Z,69.20
2018-02-23T00:28:51.392Z,70.10
2018-02-23T00:31:19.688Z,71.60
2018-02-23T00:33:47.349Z,71.50
2018-02-23T00:36:14.856Z,71.50
2018-02-23T00:38:42.394Z,71.40
2018-02-23T00:41:09.920Z,71.50
2018-02-23T00:43:37.492Z,71.70
2018-02-23T00:46:05.024Z,71.70
2018-02-23T00:48:33.355Z,72.80
2018-02-23T00:51:00.892Z,73.40
2018-02-23T00:53:28.414Z,72.90
2018-02-23T00:55:56.740Z,72.90
2018-02-23T00:58:24.269Z,72.90
2018-02-23T01:00:51.823Z,73.20
2018-02-23T01:03:19.386Z,72.90
2018-02-23T01:05:46.910Z,73.60
2018-02-23T01:08:14.520Z,73.70
2018-02-23T01:10:42.110Z,74.30
2018-02-23T01:13:09.643Z,73.30
2018-02-23T01:15:38.175Z,73.10
2018-02-23T01:18:05.773Z,73.30
2018-02-23T01:20:33.318Z,73.70
2018-02-23T01:23:01.617Z,73.50
2018-02-23T01:25:29.286Z,73.50
2018-02-23T01:27:56.813Z,73.40
2018-02-23T01:30:25.221Z,73.60
2018-02-23T01:32:52.762Z,73.60
2018-02-23T01:35:20.308Z,73.70
2018-02-23T01:37:48.580Z,73.50
2018-02-23T01:40:16.895Z,73.30
2018-02-23T01:42:44.411Z,73.20
2018-02-23T01:45:12.747Z,73.40
2018-02-23T01:47:40.253Z,73.20
2018-02-23T01:50:08.646Z,73.70
2018-02-23T01:52:36.150Z,73.60
2018-02-23T01:55:03.751Z,73.60
2018-02-23T01:57:32.027Z,73.50
2018-02-23T02:00:00.341Z,73.70
2018-02-23T02:02:27.861Z,73.70
2018-02-23T02:04:56.177Z,74.10
2018-02-23T02:07:23.880Z,74.10
2018-02-23T02:09:51.491Z,74.30
2018-02-23T02:12:19.045Z,74.00
2018-02-23T02:14:46.582Z,74.10
2018-02-23T02:17:14.863Z,74.00
2018-02-23T02:19:43.176Z,74.10
2018-02-23T02:22:10.680Z,74.10
2018-02-23T02:24:38.271Z,74.20
2018-02-23T02:27:05.782Z,74.30
2018-02-23T02:29:34.227Z,74.60
2018-02-23T02:32:01.757Z,74.40
2018-02-23T02:34:30.070Z,74.80
2018-02-23T02:36:57.605Z,74.90
2018-02-23T02:39:25.183Z,75.10
2018-02-23T02:41:52.708Z,75.20
2018-02-23T02:44:21.015Z,75.80
2018-02-23T02:46:48.534Z,75.70
2018-02-23T02:49:16.956Z,75.80
2018-02-23T02:51:44.619Z,75.80
2018-02-23T02:54:12.173Z,75.80
2018-02-23T02:56:39.683Z,75.90
2018-02-23T02:59:07.277Z,76.10
2018-02-23T03:01:34.812Z,76.80
2018-02-23T03:04:03.216Z,76.20
2018-02-23T03:06:30.776Z,76.10
2018-02-23T03:08:58.319Z,75.90
2018-02-23T03:11:26.585Z,76.00
2018-02-23T03:13:54.900Z,75.90
2018-02-23T03:16:22.435Z,75.80
2018-02-23T03:18:50.764Z,75.40
2018-02-23T03:21:18.395Z,75.40
2018-02-23T03:23:45.955Z,75.10
2018-02-23T03:26:13.471Z,74.80
2018-02-23T03:28:41.888Z,75.90
2018-02-23T03:31:09.445Z,75.10
2018-02-23T03:33:37.014Z,75.30
2018-02-23T03:36:04.527Z,75.40
2018-02-23T03:38:32.184Z,75.70
2018-02-23T03:40:59.704Z,76.30
2018-02-23T03:43:27.268Z,76.10
2018-02-23T03:45:54.794Z,76.20
2018-02-23T03:48:22.386Z,76.30
2018-02-23T03:50:49.894Z,76.60
2018-02-23T03:53:18.208Z,76.90
2018-02-23T03:55:45.757Z,76.80
2018-02-23T03:58:14.132Z,77.10
2018-02-23T04:00:41.699Z,77.30
2018-02-23T04:03:09.351Z,77.40
2018-02-23T04:05:36.901Z,77.40
2018-02-23T04:08:05.197Z,77.90
2018-02-23T04:10:32.753Z,77.90
2018-02-23T04:13:00.310Z,77.70
2018-02-23T04:15:27.847Z,78.00
2018-02-23T04:17:56.136Z,78.10
2018-02-23T04:20:23.700Z,78.10
2018-02-23T04:22:51.216Z,78.20
2018-02-23T04:25:28.667Z,78.00
2018-02-23T04:27:56.205Z,78.20
2018-02-23T04:30:24.506Z,78.10
2018-02-23T04:32:52.061Z,78.10
2018-02-23T04:35:19.599Z,78.20
2018-02-23T04:37:47.163Z,77.90
2018-02-23T04:40:14.721Z,78.00
2018-02-23T04:42:42.302Z,78.10
2018-02-23T04:45:09.832Z,78.60
2018-02-23T04:47:37.398Z,77.90
2018-02-23T04:50:05.064Z,77.70
2018-02-23T04:52:32.623Z,77.70
2018-02-23T04:55:00.170Z,77.60
2018-02-23T04:57:28.444Z,77.10
2018-02-23T04:59:56.767Z,77.00
2018-02-23T05:02:24.288Z,77.00
2018-02-23T05:04:51.821Z,76.80
2018-02-23T05:07:19.423Z,77.20
2018-02-23T05:09:46.976Z,78.30
2018-02-23T05:12:14.480Z,77.60
2018-02-23T05:14:42.016Z,77.90
2018-02-23T05:17:10.745Z,78.40
2018-02-23T05:19:38.253Z,78.10
2018-02-23T05:22:06.863Z,79.10
2018-02-23T05:24:34.484Z,79.10
2018-02-23T05:27:02.012Z,78.90
2018-02-23T05:29:30.327Z,79.80
2018-02-23T05:31:57.835Z,79.80
2018-02-23T05:34:25.449Z,82.50
2018-02-23T05:36:53.201Z,80.10
2018-02-23T05:39:21.304Z,78.80
2018-02-23T05:41:48.812Z,78.50
2018-02-23T05:44:17.131Z,77.50
2018-02-23T05:46:44.659Z,77.50
2018-02-23T05:49:12.215Z,77.40
2018-02-23T05:51:39.806Z,76.70
2018-02-23T05:54:08.185Z,76.80
2018-02-23T05:56:35.792Z,76.70
2018-02-23T05:59:03.365Z,76.50
2018-02-23T06:01:31.655Z,76.20
2018-02-23T06:03:59.202Z,76.20
2018-02-23T06:06:27.483Z,75.70
2018-02-23T06:08:55.124Z,75.70
2018-02-23T06:11:23.424Z,75.70
2018-02-23T06:13:50.980Z,75.60
2018-02-23T06:16:24.867Z,75.30
2018-02-23T06:18:58.000Z,75.30
2018-02-23T06:21:25.544Z,75.20
2018-02-23T06:23:53.125Z,94.40
2018-02-23T06:26:20.667Z,74.10
2018-02-23T06:28:48.204Z,73.40
2018-02-23T06:31:16.612Z,73.00
2018-02-23T06:33:44.176Z,73.00
2018-02-23T06:36:11.691Z,73.70
2018-02-23T06:38:39.248Z,74.80
2018-02-23T06:41:06.767Z,74.70
2018-02-23T06:43:34.334Z,74.50
2018-02-23T06:46:01.983Z,72.90
2018-02-23T06:48:29.527Z,72.10
2018-02-23T06:50:57.077Z,69.30
2018-02-23T06:53:24.596Z,68.60
2018-02-23T06:55:52.212Z,66.70
2018-02-23T06:58:19.723Z,64.00
2018-02-23T07:00:47.283Z,62.90
2018-02-23T07:03:14.803Z,60.90
2018-02-23T07:05:42.435Z,61.30
2018-02-23T07:08:09.954Z,59.00
2018-02-23T07:10:37.495Z,57.20
2018-02-23T07:13:05.022Z,56.10
2018-02-23T07:15:32.551Z,54.50
2018-02-23T07:18:00.847Z,53.30
2018-02-23T07:20:28.468Z,53.30
2018-02-23T07:22:55.980Z,51.10
2018-02-23T07:25:24.422Z,49.30
2018-02-23T07:27:52.700Z,47.80
2018-02-23T07:30:21.012Z,45.30
2018-02-23T07:32:48.566Z,45.30
2018-02-23T07:35:16.111Z,44.20
2018-02-23T07:37:43.632Z,43.90
2018-02-23T07:40:11.232Z,41.70
2018-02-23T07:42:38.763Z,41.40
2018-02-23T07:45:06.368Z,42.30
2018-02-23T07:47:33.872Z,42.20
2018-02-23T07:50:01.416Z,40.30
2018-02-23T07:52:28.932Z,42.10
2018-02-23T07:54:56.496Z,42.90
2018-02-23T07:57:24.012Z,41.40
2018-02-23T07:59:51.536Z,39.30
2018-02-23T08:02:19.093Z,37.40
2018-02-23T08:04:46.631Z,38.10
2018-02-23T08:07:14.151Z,37.90
2018-02-23T08:09:42.525Z,36.90
2018-02-23T08:12:10.031Z,36.90
2018-02-23T08:14:37.566Z,36.80
2018-02-23T08:17:05.138Z,36.50
2018-02-23T08:19:32.692Z,33.90
2018-02-23T08:22:00.267Z,34.10
2018-02-23T08:24:27.786Z,33.00
2018-02-23T08:26:56.175Z,32.00
2018-02-23T08:29:23.752Z,32.00
2018-02-23T08:31:51.275Z,33.30
2018-02-23T08:34:19.580Z,30.50
2018-02-23T08:36:47.103Z,30.30
2018-02-23T08:39:15.402Z,30.70
2018-02-23T08:41:42.983Z,30.30
2018-02-23T08:44:10.526Z,30.60
2018-02-23T08:46:38.068Z,31.20
2018-02-23T08:49:06.359Z,29.90
2018-02-23T08:51:33.897Z,29.90
2018-02-23T08:54:02.162Z,31.10
2018-02-23T08:56:30.456Z,31.50
2018-02-23T08:58:58.744Z,30.50
2018-02-23T09:01:26.301Z,30.50
2018-02-23T09:03:53.861Z,30.10
2018-02-23T09:06:21.399Z,29.60
2018-02-23T09:08:49.660Z,28.80
2018-02-23T09:11:17.248Z,28.80
2018-02-23T09:13:44.772Z,29.70
2018-02-23T09:16:12.307Z,28.90
2018-02-23T09:18:39.932Z,28.80
2018-02-23T09:21:12.405Z,28.70
2018-02-23T09:23:39.923Z,28.60
2018-02-23T09:26:07.481Z,28.70
2018-02-23T09:28:35.792Z,29.00
2018-02-23T09:31:03.345Z,28.90
2018-02-23T09:33:42.988Z,28.60
2018-02-23T09:36:10.539Z,28.40
2018-02-23T09:38:38.861Z,28.70
2018-02-23T09:41:06.442Z,28.70
2018-02-23T09:43:34.041Z,28.90
2018-02-23T09:46:02.577Z,28.20
2018-02-23T09:48:30.102Z,28.10
2018-02-23T09:50:57.663Z,28.90
2018-02-23T09:53:25.182Z,29.00
2018-02-23T09:55:53.599Z,29.10
2018-02-23T09:58:21.105Z,29.10
2018-02-23T10:00:48.685Z,29.30
2018-02-23T10:03:16.238Z,29.50
2018-02-23T10:05:44.534Z,29.30
2018-02-23T10:08:12.052Z,29.30
2018-02-23T10:10:39.597Z,28.20
2018-02-23T10:13:07.122Z,29.60
2018-02-23T10:15:34.689Z,28.80
2018-02-23T10:18:02.233Z,28.90
2018-02-23T10:20:29.752Z,28.90
2018-02-23T10:22:57.345Z,29.20
2018-02-23T10:25:25.476Z,28.90
2018-02-23T10:27:53.031Z,28.80
2018-02-23T10:30:20.644Z,28.30
2018-02-23T10:32:48.410Z,28.20
2018-02-23T10:35:15.923Z,27.90
2018-02-23T10:37:43.460Z,28.30
2018-02-23T10:40:11.003Z,28.00
2018-02-23T10:42:38.560Z,27.40
2018-02-23T10:45:06.183Z,27.60
2018-02-23T10:47:34.496Z,28.10
2018-02-23T10:50:02.028Z,28.00
2018-02-23T10:52:29.541Z,27.50
2018-02-23T10:54:57.147Z,27.20
2018-02-23T10:57:24.653Z,26.80
2018-02-23T10:59:52.186Z,27.30
2018-02-23T11:02:19.692Z,27.70
2018-02-23T11:04:47.963Z,28.00
2018-02-23T11:07:15.549Z,27.70
2018-02-23T11:09:43.139Z,29.60
2018-02-23T11:12:10.675Z,28.10
2018-02-23T11:14:38.192Z,29.40
2018-02-23T11:17:05.790Z,27.00
2018-02-23T11:19:33.318Z,27.00
2018-02-23T11:22:01.737Z,27.60
2018-02-23T11:24:29.269Z,27.70
2018-02-23T11:26:57.572Z,27.50
2018-02-23T11:29:25.101Z,27.50
2018-02-23T11:31:53.419Z,28.40
2018-02-23T11:34:20.931Z,28.30
2018-02-23T11:36:48.480Z,29.30
2018-02-23T11:39:16.020Z,29.20
2018-02-23T11:41:43.573Z,28.10
2018-02-23T11:44:11.209Z,28.00
2018-02-23T11:46:38.758Z,28.90
2018-02-23T11:49:06.304Z,29.90
2018-02-23T11:51:34.580Z,30.50
2018-02-23T11:54:02.892Z,32.10
2018-02-23T11:56:30.431Z,32.10
2018-02-23T11:58:57.959Z,31.40
2018-02-23T12:01:25.515Z,31.00
2018-02-23T12:03:53.062Z,31.70
2018-02-23T12:06:20.596Z,30.70
2018-02-23T12:08:49.034Z,30.50
2018-02-23T12:11:17.313Z,30.60
2018-02-23T12:13:45.634Z,30.00
2018-02-23T12:16:13.150Z,30.00
2018-02-23T12:18:41.446Z,30.00
2018-02-23T12:21:09.004Z,29.90
2018-02-23T12:23:36.507Z,31.20
2018-02-23T12:26:04.049Z,31.80
2018-02-23T12:28:31.685Z,31.90
2018-02-23T12:30:59.270Z,32.70
2018-02-23T12:33:26.801Z,33.40
2018-02-23T12:35:54.340Z,34.90
2018-02-23T12:38:22.639Z,34.40
2018-02-23T12:40:50.297Z,34.30
2018-02-23T12:43:17.800Z,34.80
2018-02-23T12:45:45.411Z,34.40
2018-02-23T12:48:12.968Z,35.30
2018-02-23T12:50:40.500Z,34.60
2018-02-23T12:53:08.785Z,36.30
2018-02-23T12:55:37.098Z,36.30
2018-02-23T12:58:04.754Z,36.10
2018-02-23T13:00:32.320Z,35.90
2018-02-23T13:02:59.846Z,36.70
2018-02-23T13:05:28.144Z,36.50
2018-02-23T13:07:55.659Z,35.80
2018-02-23T13:10:23.309Z,35.90
2018-02-23T13:12:50.848Z,36.40
2018-02-23T13:15:19.401Z,35.30
2018-02-23T13:17:46.936Z,35.80
2018-02-23T13:20:15.393Z,36.00
2018-02-23T13:22:42.919Z,36.00
2018-02-23T13:25:10.623Z,36.40
2018-02-23T13:27:38.168Z,35.70
2018-02-23T13:30:05.718Z,35.90
2018-02-23T13:32:33.247Z,36.00
2018-02-23T13:35:00.778Z,35.70
2018-02-23T13:37:29.079Z,36.40
2018-02-23T13:39:56.632Z,36.40
2018-02-23T13:42:25.660Z,36.40
2018-02-23T13:44:53.190Z,35.10
2018-02-23T13:47:20.746Z,35.80
2018-02-23T13:49:48.387Z,35.60
2018-02-23T13:52:16.668Z,35.40
2018-02-23T13:54:45.166Z,35.60
2018-02-23T13:57:12.692Z,35.60
2018-02-23T13:59:40.285Z,35.40
2018-02-23T14:02:07.961Z,35.60
2018-02-23T14:04:35.523Z,35.90
2018-02-23T14:09:59.409Z,35.10
2018-02-23T14:12:28.016Z,36.00
2018-02-23T14:14:55.585Z,35.80
2018-02-23T14:17:23.178Z,34.50
2018-02-23T14:19:51.503Z,35.10
2018-02-23T14:22:19.071Z,34.30
2018-02-23T14:24:46.699Z,34.50
2018-02-23T14:27:14.224Z,34.40
2018-02-23T14:29:41.793Z,34.20
2018-02-23T14:32:10.104Z,35.20
2018-02-23T14:34:37.802Z,35.10
2018-02-23T14:37:05.308Z,35.30
2018-02-23T14:39:32.877Z,34.80
2018-02-23T14:42:00.452Z,34.30
2018-02-23T14:44:28.037Z,35.40
2018-02-23T14:46:55.555Z,34.10
2018-02-23T14:49:29.732Z,33.90
2018-02-23T14:51:57.327Z,33.40
2018-02-23T14:54:24.873Z,33.40
2018-02-23T14:56:53.169Z,33.80
2018-02-23T14:59:20.735Z,33.70
2018-02-23T15:01:48.244Z,33.70
2018-02-23T15:04:16.592Z,34.10
2018-02-23T15:06:44.115Z,34.00
2018-02-23T15:09:12.511Z,33.40
2018-02-23T15:11:40.053Z,33.30
2018-02-23T15:14:07.627Z,34.00
2018-02-23T15:16:35.380Z,33.30
2018-02-23T15:19:02.923Z,33.00
2018-02-23T15:21:31.211Z,33.50
2018-02-23T15:23:58.783Z,33.40
2018-02-23T15:26:26.305Z,33.30
2018-02-23T15:28:55.582Z,33.40
2018-02-23T15:31:34.966Z,33.90
2018-02-23T15:34:02.571Z,33.70
2018-02-23T15:36:30.094Z,33.80
2018-02-23T15:38:58.485Z,33.50
2018-02-23T15:41:25.989Z,33.20
2018-02-23T15:43:53.662Z,33.10
2018-02-23T15:46:21.969Z,34.10
2018-02-23T15:48:55.211Z,33.60
2018-02-23T15:54:28.303Z,34.30
2018-02-23T15:56:55.838Z,33.90
2018-02-23T15:59:23.364Z,34.00
2018-02-23T16:01:51.655Z,34.40
2018-02-23T16:04:19.189Z,34.30
2018-02-23T16:06:46.717Z,34.70
2018-02-23T16:09:15.028Z,34.80
2018-02-23T16:11:44.237Z,35.70
2018-02-23T16:14:12.544Z,35.10
2018-02-23T16:16:40.058Z,35.10
2018-02-23T16:19:08.376Z,35.50
2018-02-23T16:21:35.886Z,35.30
2018-02-23T16:24:03.428Z,36.20
2018-02-23T16:26:30.958Z,35.70
2018-02-23T16:28:58.498Z,36.50
2018-02-23T16:31:26.072Z,36.60
2018-02-23T16:33:53.916Z,37.70
2018-02-23T16:36:22.191Z,38.40
2018-02-23T16:38:50.602Z,38.60
2018-02-23T16:41:18.120Z,38.60
2018-02-23T16:43:46.394Z,38.90
2018-02-23T16:46:14.712Z,39.50
2018-02-23T16:48:42.212Z,39.40
2018-02-23T16:51:09.759Z,39.90
2018-02-23T16:53:37.278Z,40.40
2018-02-23T16:56:04.855Z,40.80
2018-02-23T16:58:32.384Z,40.80
2018-02-23T17:00:59.944Z,44.50
2018-02-23T17:03:27.461Z,40.90
2018-02-23T17:05:55.067Z,40.60
2018-02-23T17:08:22.622Z,40.20
2018-02-23T17:10:50.184Z,41.10
2018-02-23T17:13:17.740Z,40.80
2018-02-23T17:15:45.324Z,41.10
2018-02-23T17:18:13.591Z,41.50
2018-02-23T17:20:41.249Z,41.00
2018-02-23T17:23:08.760Z,40.30
2018-02-23T17:25:37.144Z,40.50
2018-02-23T17:28:04.665Z,40.00
2018-02-23T17:30:32.219Z,40.60
2018-02-23T17:32:59.740Z,40.80
2018-02-23T17:35:28.136Z,40.10
2018-02-23T17:37:56.724Z,40.10
2018-02-23T17:40:24.251Z,39.70
2018-02-23T17:42:52.575Z,40.00
2018-02-23T17:45:20.187Z,40.00
2018-02-23T17:47:48.454Z,39.40
2018-02-23T17:50:16.044Z,39.30
2018-02-23T17:52:44.593Z,39.30
2018-02-23T17:55:12.199Z,39.40
2018-02-23T17:57:39.774Z,39.60
2018-02-23T18:00:07.365Z,39.60
2018-02-23T18:02:34.957Z,39.50
2018-02-23T18:05:03.368Z,39.80
2018-02-23T18:07:30.911Z,39.20
2018-02-23T18:09:58.649Z,38.50
2018-02-23T18:12:27.102Z,38.90
2018-02-23T18:14:54.634Z,38.70
2018-02-23T18:17:22.160Z,38.70
2018-02-23T18:19:50.455Z,39.10
2018-02-23T18:22:18.004Z,39.10
2018-02-23T18:24:46.339Z,39.20
2018-02-23T18:27:13.874Z,39.10
2018-02-23T18:29:41.456Z,39.10
2018-02-23T18:32:08.964Z,38.80
2018-02-23T18:34:36.519Z,38.90
2018-02-23T18:37:04.029Z,38.80
2018-02-23T18:39:31.565Z,39.00
2018-02-23T18:41:59.105Z,38.70
2018-02-23T18:44:26.752Z,39.10
2018-02-23T18:46:55.082Z,38.70
2018-02-23T18:49:25.644Z,38.70
2018-02-23T18:51:54.030Z,38.80
2018-02-23T18:54:22.377Z,43.20
2018-02-23T18:56:49.908Z,43.10
2018-02-23T18:59:17.496Z,39.40
2018-02-23T19:01:45.098Z,39.10
2018-02-23T19:04:12.632Z,39.40
2018-02-23T19:06:40.183Z,39.20
2018-02-23T19:09:07.745Z,39.30
2018-02-23T19:11:35.288Z,39.00
2018-02-23T19:14:02.825Z,39.40
2018-02-23T19:16:30.403Z,40.30
2018-02-23T19:18:57.960Z,40.70
2018-02-23T19:21:25.597Z,40.50
2018-02-23T19:23:53.181Z,41.00
2018-02-23T19:26:20.697Z,41.50
2018-02-23T19:28:48.255Z,41.00
2018-02-23T19:31:15.831Z,40.00
2018-02-23T19:33:43.419Z,39.80
2018-02-23T19:36:10.986Z,40.30
2018-02-23T19:38:38.526Z,40.30
2018-02-23T19:41:06.063Z,41.20
2018-02-23T19:43:33.833Z,41.30
2018-02-23T19:46:01.344Z,41.90
2018-02-23T19:48:29.661Z,41.40
2018-02-23T19:50:57.175Z,41.40
2018-02-23T19:53:24.764Z,41.70
2018-02-23T19:55:52.376Z,40.80
2018-02-23T19:58:19.907Z,40.90
2018-02-23T20:00:47.418Z,40.50
2018-02-23T20:03:14.963Z,39.60
2018-02-23T20:05:42.584Z,38.80
2018-02-23T20:08:10.148Z,37.90
2018-02-23T20:10:37.666Z,37.40
2018-02-23T20:13:06.001Z,37.70
2018-02-23T20:15:33.519Z,37.60
2018-02-23T20:18:01.075Z,36.90
2018-02-23T20:20:28.572Z,36.90
2018-02-23T20:22:56.119Z,35.90
2018-02-23T20:25:23.645Z,36.60
2018-02-23T20:27:51.959Z,37.00
2018-02-23T20:30:19.463Z,37.60
2018-02-23T20:32:47.020Z,34.50
2018-02-23T20:35:15.992Z,34.40
2018-02-23T20:37:43.564Z,34.30
2018-02-23T20:40:11.140Z,35.30
2018-02-23T20:42:39.466Z,33.70
2018-02-23T20:45:06.977Z,33.50
2018-02-23T20:47:34.528Z,34.40
2018-02-23T20:50:02.062Z,32.40
2018-02-23T20:52:30.687Z,32.80
2018-02-23T20:54:59.002Z,33.10
2018-02-23T20:57:26.559Z,33.00
2018-02-23T20:59:54.096Z,33.20
2018-02-23T21:02:22.511Z,32.40
2018-02-23T21:04:50.031Z,32.40
2018-02-23T21:07:18.414Z,32.40
2018-02-23T21:09:45.930Z,32.40
2018-02-23T21:12:13.512Z,31.70
2018-02-23T21:14:41.802Z,32.10
2018-02-23T21:17:09.380Z,32.10
2018-02-23T21:19:36.917Z,32.60
2018-02-23T21:22:05.205Z,33.10
2018-02-23T21:24:32.781Z,33.10
2018-02-23T21:27:00.570Z,33.30
2018-02-23T21:29:28.110Z,33.00
2018-02-23T21:31:55.700Z,32.80
2018-02-23T21:34:23.327Z,32.70
2018-02-23T21:36:50.865Z,33.10
2018-02-23T21:39:19.217Z,32.30
2018-02-23T21:41:53.681Z,32.30
2018-02-23T21:44:21.224Z,32.30
2018-02-23T21:46:50.497Z,33.10
2018-02-23T21:49:19.562Z,33.50
2018-02-23T21:51:47.096Z,32.90
2018-02-23T21:54:14.655Z,32.80
2018-02-23T21:56:42.208Z,33.00
2018-02-23T21:59:10.645Z,32.80
2018-02-23T22:01:38.157Z,32.80
2018-02-23T22:04:05.689Z,33.20
2018-02-23T22:06:34.024Z,33.50
2018-02-23T22:09:01.664Z,33.40
2018-02-23T22:11:29.181Z,33.50
2018-02-23T22:13:57.501Z,33.80
2018-02-23T22:16:25.029Z,33.80
2018-02-23T22:18:52.545Z,33.90
2018-02-23T22:21:20.084Z,34.00
2018-02-23T22:23:47.629Z,34.00
2018-02-23T22:26:15.186Z,34.10
2018-02-23T22:28:42.694Z,34.00
2018-02-23T22:31:10.272Z,34.30
2018-02-23T22:33:38.570Z,34.60
2018-02-23T22:36:06.153Z,34.50
2018-02-23T22:38:33.698Z,34.90
2018-02-23T22:41:01.310Z,35.10
2018-02-23T22:43:29.599Z,36.00
2018-02-23T22:45:57.911Z,36.10
2018-02-23T22:48:25.519Z,36.10
2018-02-23T22:50:53.175Z,36.70
2018-02-23T22:53:20.727Z,36.90
2018-02-23T22:55:48.295Z,37.90
2018-02-23T22:58:15.942Z,37.80
2018-02-23T23:00:43.593Z,38.40
2018-02-23T23:03:11.819Z,38.30
2018-02-23T23:05:40.154Z,39.00
2018-02-23T23:08:08.999Z,39.00
2018-02-23T23:10:36.621Z,40.00
2018-02-23T23:13:04.145Z,39.90
2018-02-23T23:15:31.850Z,40.90
2018-02-23T23:18:00.255Z,41.20
2018-02-23T23:20:28.723Z,42.20
2018-02-23T23:22:57.132Z,42.20
2018-02-23T23:25:27.615Z,42.20
2018-02-23T23:27:55.228Z,42.70
2018-02-23T23:30:22.769Z,43.10
2018-02-23T23:32:50.336Z,43.00
2018-02-23T23:35:17.972Z,43.10
2018-02-23T23:37:46.260Z,42.60
2018-02-23T23:40:14.553Z,42.50
2018-02-23T23:42:42.119Z,42.50
2018-02-23T23:45:09.658Z,43.30
2018-02-23T23:47:37.940Z,43.70
2018-02-23T23:50:05.614Z,43.60
2018-02-23T23:52:33.151Z,43.50
2018-02-23T23:55:01.458Z,44.60
2018-02-23T23:57:28.975Z,44.60
2018-02-23T23:59:57.304Z,44.70
